Terminal Aerodrome Forecast
Issued by NWS Wilmington, OH

Home | Current Version | Previous Version | Text Only | Print | Product List | Glossary On
Versions: 1 2 3 4 5 6 7 8 9 10 11 12 13 14 15 16 17 18 19 20 21 22 23 24 25 26 27 28 29 30 31 32 33
000
FTUS41 KILN 221200 AAA
TAFCVG
TAF AMD
KCVG 221250Z 2213/2318 35010KT P6SM FEW017 BKN022
     FM221600 34010KT P6SM SKC
     FM230100 02004KT P6SM SKC
     FM231400 07005KT P6SM SKC=

USA.gov is the U.S. government's official web portal to all federal, state and local government web resources and services.